createdAt,value
2023-11-07T00:00:29.925Z,0.80
2023-11-07T00:02:57.985Z,0.97
2023-11-07T00:05:26.445Z,0.90
2023-11-07T00:07:54.982Z,0.80
2023-11-07T00:10:28.878Z,0.97
2023-11-07T00:12:58.161Z,1.00
2023-11-07T00:15:26.829Z,0.93
2023-11-07T00:17:55.125Z,0.80
2023-11-07T00:20:24.005Z,0.80
2023-11-07T00:22:51.940Z,0.80
2023-11-07T00:25:20.048Z,1.00
2023-11-07T00:27:49.834Z,0.90
2023-11-07T00:30:17.828Z,0.80
2023-11-07T00:32:45.940Z,0.80
2023-11-07T00:35:14.577Z,1.00
2023-11-07T00:37:42.548Z,0.70
2023-11-07T00:40:14.344Z,1.10
2023-11-07T00:42:43.307Z,1.20
2023-11-07T00:45:13.150Z,1.20
2023-11-07T00:47:41.732Z,0.80
2023-11-07T00:50:11.839Z,0.80
2023-11-07T00:52:41.189Z,0.70
2023-11-07T00:55:09.981Z,0.90
2023-11-07T00:57:38.519Z,0.90
2023-11-07T01:00:07.720Z,0.90
2023-11-07T01:02:37.880Z,0.90
2023-11-07T01:05:06.947Z,1.40
2023-11-07T01:07:35.024Z,0.90
2023-11-07T01:10:04.013Z,0.77
2023-11-07T01:12:32.011Z,0.80
2023-11-07T01:15:00.292Z,0.87
2023-11-07T01:17:29.359Z,0.80
2023-11-07T01:19:58.867Z,0.80
2023-11-07T01:22:27.766Z,0.80
2023-11-07T01:24:56.173Z,1.20
2023-11-07T01:27:24.139Z,0.70
2023-11-07T01:29:52.186Z,0.80
2023-11-07T01:32:21.377Z,0.90
2023-11-07T01:34:49.360Z,0.80
2023-11-07T01:37:19.240Z,0.90
2023-11-07T01:39:47.278Z,1.10
2023-11-07T01:42:15.235Z,1.03
2023-11-07T01:44:51.215Z,1.00
2023-11-07T01:47:20.929Z,0.80
2023-11-07T01:49:50.333Z,0.80
2023-11-07T01:52:21.375Z,1.37
2023-11-07T01:54:52.655Z,1.10
2023-11-07T01:57:22.312Z,0.70
2023-11-07T01:59:51.250Z,0.70
2023-11-07T02:02:20.771Z,1.00
2023-11-07T02:04:49.730Z,1.00
2023-11-07T02:07:19.286Z,1.37
2023-11-07T02:09:48.348Z,1.03
2023-11-07T02:12:16.840Z,0.90
2023-11-07T02:14:45.145Z,0.93
2023-11-07T02:17:13.223Z,1.20
2023-11-07T02:19:41.910Z,0.90
2023-11-07T02:22:12.029Z,1.83
2023-11-07T02:24:41.876Z,1.00
2023-11-07T02:27:09.961Z,2.00
2023-11-07T02:29:38.925Z,0.90
2023-11-07T02:32:08.004Z,0.90
2023-11-07T02:34:36.049Z,0.97
2023-11-07T02:37:04.090Z,1.03
2023-11-07T02:39:32.867Z,1.13
2023-11-07T02:42:02.355Z,1.20
2023-11-07T02:44:33.354Z,1.10
2023-11-07T02:47:01.930Z,1.63
2023-11-07T02:49:29.956Z,1.00
2023-11-07T02:51:58.682Z,1.40
2023-11-07T02:54:27.144Z,1.33
2023-11-07T02:56:55.069Z,2.20
2023-11-07T02:59:24.384Z,2.40
2023-11-07T03:01:53.041Z,1.60
2023-11-07T03:04:21.260Z,1.27
2023-11-07T03:06:49.427Z,1.00
2023-11-07T03:09:17.974Z,1.00
2023-11-07T03:11:46.028Z,1.10
2023-11-07T03:14:14.157Z,1.20
2023-11-07T03:16:44.255Z,1.00
2023-11-07T03:19:12.466Z,1.40
2023-11-07T03:21:40.757Z,1.37
2023-11-07T03:24:09.959Z,1.37
2023-11-07T03:26:38.159Z,1.67
2023-11-07T03:29:06.554Z,2.10
2023-11-07T03:31:35.956Z,1.80
2023-11-07T03:34:05.473Z,1.90
2023-11-07T03:36:34.138Z,1.80
2023-11-07T03:39:02.415Z,1.00
2023-11-07T03:41:30.478Z,1.10
2023-11-07T03:43:58.961Z,1.37
2023-11-07T03:46:27.060Z,1.20
2023-11-07T03:48:55.800Z,1.07
2023-11-07T03:51:25.841Z,1.20
2023-11-07T03:53:55.154Z,0.77
2023-11-07T03:56:23.390Z,0.90
2023-11-07T03:58:52.142Z,0.80
2023-11-07T04:01:20.374Z,0.80
2023-11-07T04:03:48.795Z,1.50
2023-11-07T04:06:17.707Z,2.30
2023-11-07T04:08:47.349Z,3.40
2023-11-07T04:11:16.046Z,1.73
2023-11-07T04:13:44.519Z,1.90
2023-11-07T04:16:12.630Z,1.57
2023-11-07T04:18:41.116Z,0.90
2023-11-07T04:21:10.090Z,1.13
2023-11-07T04:23:38.523Z,1.03
2023-11-07T04:26:09.043Z,1.30
2023-11-07T04:28:39.477Z,1.10
2023-11-07T04:31:08.882Z,1.00
2023-11-07T04:33:37.802Z,1.20
2023-11-07T04:36:07.456Z,1.37
2023-11-07T04:38:36.713Z,1.63
2023-11-07T04:41:06.072Z,1.30
2023-11-07T04:43:37.471Z,1.57
2023-11-07T04:46:06.149Z,1.00
2023-11-07T04:48:34.534Z,1.53
2023-11-07T04:51:04.409Z,1.30
2023-11-07T04:53:34.255Z,1.50
2023-11-07T04:56:03.966Z,1.23
2023-11-07T04:58:32.589Z,1.10
2023-11-07T05:01:03.148Z,1.20
2023-11-07T05:03:38.632Z,2.20
2023-11-07T05:06:09.996Z,1.23
2023-11-07T05:08:38.320Z,1.50
2023-11-07T05:11:06.960Z,1.20
2023-11-07T05:13:35.063Z,1.17
2023-11-07T05:16:05.896Z,1.90
2023-11-07T05:18:34.260Z,2.17
2023-11-07T05:21:03.225Z,2.00
2023-11-07T05:23:31.474Z,1.93
2023-11-07T05:25:59.493Z,1.47
2023-11-07T05:28:27.992Z,1.90
2023-11-07T05:30:56.015Z,1.77
2023-11-07T05:33:25.643Z,3.30
2023-11-07T05:35:54.461Z,2.60
2023-11-07T05:38:23.478Z,2.93
2023-11-07T05:40:52.076Z,1.63
2023-11-07T05:43:20.915Z,1.90
2023-11-07T05:45:49.023Z,5.43
2023-11-07T05:48:17.758Z,3.17
2023-11-07T05:50:47.930Z,2.47
2023-11-07T05:53:17.733Z,2.13
2023-11-07T05:55:46.225Z,2.83
2023-11-07T05:58:15.607Z,2.10
2023-11-07T06:00:44.213Z,2.03
2023-11-07T06:03:14.769Z,2.10
2023-11-07T06:05:45.776Z,2.20
2023-11-07T06:08:15.750Z,2.30
2023-11-07T06:10:44.901Z,1.87
2023-11-07T06:13:13.144Z,2.63
2023-11-07T06:15:41.204Z,2.10
2023-11-07T06:18:10.175Z,2.40
2023-11-07T06:20:38.386Z,2.60
2023-11-07T06:23:06.934Z,2.90
2023-11-07T06:25:37.518Z,2.47
2023-11-07T06:28:05.729Z,2.40
2023-11-07T06:30:36.006Z,2.97
2023-11-07T06:33:05.119Z,3.00
2023-11-07T06:35:33.790Z,2.10
2023-11-07T06:38:02.061Z,2.50
2023-11-07T06:40:30.859Z,1.87
2023-11-07T06:43:00.661Z,1.90
2023-11-07T06:45:28.867Z,1.50
2023-11-07T06:47:57.609Z,2.07
2023-11-07T06:50:27.614Z,2.77
2023-11-07T06:52:56.056Z,2.27
2023-11-07T06:55:26.858Z,2.60
2023-11-07T06:57:56.785Z,2.10
2023-11-07T07:00:27.777Z,1.30
2023-11-07T07:02:57.892Z,1.53
2023-11-07T07:05:27.293Z,1.20
2023-11-07T07:07:56.339Z,1.23
2023-11-07T07:10:26.718Z,1.87
2023-11-07T07:12:55.032Z,1.40
2023-11-07T07:15:23.901Z,1.83
2023-11-07T07:17:53.544Z,1.10
2023-11-07T07:20:23.308Z,1.30
2023-11-07T07:22:52.108Z,1.13
2023-11-07T07:25:22.161Z,1.40
2023-11-07T07:27:51.699Z,1.53
2023-11-07T07:30:23.860Z,1.50
2023-11-07T07:32:53.813Z,1.57
2023-11-07T07:35:23.461Z,1.47
2023-11-07T07:37:53.779Z,1.40
2023-11-07T07:40:27.969Z,1.43
2023-11-07T07:42:59.482Z,1.50
2023-11-07T07:45:32.947Z,1.33
2023-11-07T07:48:05.189Z,0.90
2023-11-07T07:50:34.634Z,1.20
2023-11-07T07:53:07.886Z,0.83
2023-11-07T07:55:38.954Z,1.30
2023-11-07T07:58:08.206Z,1.10
2023-11-07T08:00:39.261Z,1.50
2023-11-07T08:03:10.434Z,1.00
2023-11-07T08:05:42.034Z,0.90
2023-11-07T08:08:11.834Z,0.90
2023-11-07T08:10:41.533Z,0.90
2023-11-07T08:13:11.932Z,1.00
2023-11-07T08:15:40.268Z,1.70
2023-11-07T08:18:10.610Z,1.50
2023-11-07T08:20:39.772Z,1.03
2023-11-07T08:23:09.172Z,1.10
2023-11-07T08:25:37.594Z,0.80
2023-11-07T08:28:11.167Z,1.03
2023-11-07T08:30:39.964Z,0.97
2023-11-07T08:33:10.101Z,1.00
2023-11-07T08:35:40.566Z,0.93
2023-11-07T08:38:09.068Z,1.50
2023-11-07T08:40:38.076Z,1.00
2023-11-07T08:43:08.156Z,0.97
2023-11-07T08:45:36.692Z,0.90
2023-11-07T08:48:05.666Z,1.10
2023-11-07T08:50:36.698Z,1.00
2023-11-07T08:53:06.974Z,1.00
2023-11-07T08:55:35.594Z,0.80
2023-11-07T08:58:06.842Z,1.03
2023-11-07T09:00:35.885Z,1.17
2023-11-07T09:03:05.569Z,1.17
2023-11-07T09:05:35.663Z,0.90
2023-11-07T09:08:06.011Z,0.80
2023-11-07T09:10:34.384Z,1.00
2023-11-07T09:13:05.015Z,1.33
2023-11-07T09:15:33.624Z,1.57
2023-11-07T09:18:01.969Z,1.23
2023-11-07T09:20:30.895Z,1.10
2023-11-07T09:23:00.597Z,1.13
2023-11-07T09:25:29.029Z,0.90
2023-11-07T09:27:58.321Z,0.83
2023-11-07T09:30:26.520Z,0.90
2023-11-07T09:32:55.562Z,1.50
2023-11-07T09:35:24.926Z,0.80
2023-11-07T09:37:53.257Z,0.80
2023-11-07T09:40:26.637Z,0.90
2023-11-07T09:42:55.975Z,1.10
2023-11-07T09:45:25.651Z,0.90
2023-11-07T09:47:55.198Z,1.00
2023-11-07T09:50:25.463Z,1.00
2023-11-07T09:52:56.384Z,1.10
2023-11-07T09:55:31.523Z,0.93
2023-11-07T09:58:15.559Z,0.80
2023-11-07T10:00:47.142Z,0.80
2023-11-07T10:03:16.978Z,1.40
2023-11-07T10:05:49.262Z,1.10
2023-11-07T10:08:18.729Z,1.07
2023-11-07T10:11:11.688Z,0.93
2023-11-07T10:13:40.423Z,1.00
2023-11-07T10:18:50.485Z,1.10
2023-11-07T10:21:32.892Z,0.80
2023-11-07T10:24:02.026Z,1.00
2023-11-07T10:26:32.960Z,2.00
2023-11-07T10:29:19.013Z,0.90
2023-11-07T10:32:00.725Z,0.90
2023-11-07T10:34:30.102Z,1.10
2023-11-07T10:37:00.076Z,0.90
2023-11-07T10:39:28.965Z,1.00
2023-11-07T10:41:59.922Z,0.93
2023-11-07T10:44:30.975Z,1.00
2023-11-07T10:47:01.979Z,0.83
2023-11-07T10:49:32.304Z,0.90
2023-11-07T10:52:04.674Z,1.10
2023-11-07T10:54:33.536Z,0.90
2023-11-07T10:57:08.310Z,1.10
2023-11-07T10:59:41.591Z,1.10
2023-11-07T11:02:10.999Z,0.90
2023-11-07T11:04:43.816Z,0.90
2023-11-07T11:07:13.333Z,0.80
2023-11-07T11:09:42.932Z,1.03
2023-11-07T11:12:14.677Z,1.53
2023-11-07T11:14:43.063Z,1.00
2023-11-07T11:17:20.518Z,1.10
2023-11-07T11:19:58.783Z,0.90
2023-11-07T11:22:32.343Z,0.80
2023-11-07T11:25:15.592Z,1.00
2023-11-07T11:27:51.203Z,0.70
2023-11-07T11:30:19.518Z,1.40
2023-11-07T11:33:07.230Z,0.83
2023-11-07T11:35:39.502Z,0.80
2023-11-07T11:38:14.114Z,1.17
2023-11-07T11:40:56.443Z,1.40
2023-11-07T11:43:27.774Z,1.30
2023-11-07T11:46:00.201Z,0.97
2023-11-07T11:49:09.303Z,1.23
2023-11-07T11:51:39.973Z,1.00
2023-11-07T11:54:09.638Z,0.80
2023-11-07T11:57:05.470Z,1.03
2023-11-07T11:59:55.510Z,0.90
2023-11-07T12:02:41.021Z,0.87
2023-11-07T12:05:20.249Z,0.80
2023-11-07T12:07:49.078Z,0.80
2023-11-07T12:10:22.658Z,1.23
2023-11-07T12:12:59.538Z,1.00
2023-11-07T12:15:29.815Z,1.00
2023-11-07T12:18:00.696Z,1.00
2023-11-07T12:20:29.068Z,0.70
2023-11-07T12:22:57.969Z,0.90
2023-11-07T12:25:26.513Z,0.80
2023-11-07T12:28:06.063Z,0.70
2023-11-07T12:30:36.669Z,0.83
2023-11-07T12:33:07.943Z,0.83
2023-11-07T12:35:36.175Z,1.10
2023-11-07T12:38:07.624Z,0.90
2023-11-07T12:40:37.670Z,0.80
2023-11-07T12:43:09.069Z,0.67
2023-11-07T12:45:40.601Z,0.97
2023-11-07T12:48:11.546Z,0.80
2023-11-07T12:50:46.381Z,0.70
2023-11-07T12:53:16.288Z,1.77
2023-11-07T12:55:52.974Z,0.80
2023-11-07T12:58:28.877Z,0.70
2023-11-07T13:01:00.117Z,0.73
2023-11-07T13:03:34.121Z,1.27
2023-11-07T13:06:05.480Z,1.03
2023-11-07T13:08:36.237Z,1.10
2023-11-07T13:11:17.549Z,1.37
2023-11-07T13:13:46.879Z,1.07
2023-11-07T13:16:17.695Z,0.90
2023-11-07T13:18:46.773Z,0.70
2023-11-07T13:21:15.301Z,1.10
2023-11-07T13:23:43.458Z,1.00
2023-11-07T13:26:12.446Z,1.10
2023-11-07T13:28:43.915Z,1.00
2023-11-07T13:31:13.962Z,0.90
2023-11-07T13:33:45.446Z,1.03
2023-11-07T13:36:15.912Z,0.83
2023-11-07T13:38:47.030Z,0.97
2023-11-07T13:41:15.625Z,1.37
2023-11-07T13:43:44.006Z,0.70
2023-11-07T13:46:18.119Z,0.90
2023-11-07T13:48:50.219Z,1.20
2023-11-07T13:51:18.675Z,1.50
2023-11-07T13:53:46.745Z,1.40
2023-11-07T13:56:16.245Z,2.43
2023-11-07T13:58:44.650Z,1.00
2023-11-07T14:01:13.471Z,1.17
2023-11-07T14:03:42.486Z,0.80
2023-11-07T14:06:12.561Z,1.27
2023-11-07T14:08:41.189Z,1.73
2023-11-07T14:11:09.289Z,1.10
2023-11-07T14:13:37.567Z,0.93
2023-11-07T14:16:06.733Z,2.67
2023-11-07T14:18:35.047Z,1.40
2023-11-07T14:21:04.783Z,1.20
2023-11-07T14:23:34.983Z,1.33
2023-11-07T14:26:03.835Z,1.20
2023-11-07T14:28:34.434Z,1.40
2023-11-07T14:31:08.408Z,1.20
2023-11-07T14:33:37.064Z,1.33
2023-11-07T14:36:08.757Z,1.60
2023-11-07T14:38:38.432Z,1.20
2023-11-07T14:41:08.628Z,1.33
2023-11-07T14:43:37.410Z,1.10
2023-11-07T14:46:07.051Z,1.33
2023-11-07T14:48:35.884Z,1.20
2023-11-07T14:51:04.533Z,1.57
2023-11-07T14:53:32.880Z,1.90
2023-11-07T14:56:04.329Z,2.33
2023-11-07T14:58:34.614Z,1.20
2023-11-07T15:01:03.341Z,1.50
2023-11-07T15:03:32.653Z,1.60
2023-11-07T15:06:03.780Z,1.63
2023-11-07T15:08:32.864Z,2.77
2023-11-07T15:11:04.475Z,1.67
2023-11-07T15:13:33.615Z,2.00
2023-11-07T15:16:03.238Z,2.00
2023-11-07T15:18:32.259Z,2.17
2023-11-07T15:21:01.269Z,2.20
2023-11-07T15:23:29.571Z,2.60
2023-11-07T15:25:58.290Z,1.90
2023-11-07T15:28:29.716Z,1.60
2023-11-07T15:30:58.823Z,1.20
2023-11-07T15:33:28.403Z,1.27
2023-11-07T15:35:57.969Z,1.70
2023-11-07T15:38:27.004Z,1.10
2023-11-07T15:40:56.232Z,1.67
2023-11-07T15:43:25.232Z,1.37
2023-11-07T15:45:54.933Z,1.33
2023-11-07T15:48:23.856Z,1.27
2023-11-07T15:50:53.372Z,1.00
2023-11-07T15:53:21.836Z,1.50
2023-11-07T15:55:50.513Z,0.93
2023-11-07T15:58:19.607Z,1.17
2023-11-07T16:00:51.108Z,1.50
2023-11-07T16:03:21.823Z,1.03
2023-11-07T16:05:50.595Z,1.50
2023-11-07T16:08:19.462Z,1.40
2023-11-07T16:10:48.273Z,1.40
2023-11-07T16:13:18.070Z,1.33
2023-11-07T16:15:47.798Z,1.20
2023-11-07T16:18:17.263Z,1.10
2023-11-07T16:20:47.047Z,1.97
2023-11-07T16:23:15.072Z,1.57
2023-11-07T16:25:43.312Z,1.53
2023-11-07T16:28:11.489Z,1.50
2023-11-07T16:30:40.192Z,1.30
2023-11-07T16:33:11.358Z,1.53
2023-11-07T16:35:40.330Z,1.53
2023-11-07T16:38:14.456Z,1.60
2023-11-07T16:40:45.184Z,1.80
2023-11-07T16:43:14.474Z,1.87
2023-11-07T16:45:44.039Z,1.83
2023-11-07T16:48:13.043Z,1.50
2023-11-07T16:50:42.117Z,1.60
2023-11-07T16:53:11.992Z,2.17
2023-11-07T16:55:40.892Z,1.77
2023-11-07T16:58:09.278Z,2.63
2023-11-07T17:00:38.535Z,3.30
2023-11-07T17:03:07.201Z,2.80
2023-11-07T17:05:36.884Z,1.80
2023-11-07T17:08:08.254Z,2.10
2023-11-07T17:10:39.287Z,2.53
2023-11-07T17:13:07.817Z,2.00
2023-11-07T17:15:36.301Z,2.20
2023-11-07T17:18:08.065Z,2.47
2023-11-07T17:20:36.933Z,1.80
2023-11-07T17:23:05.934Z,2.27
2023-11-07T17:25:35.791Z,2.77
2023-11-07T17:28:05.712Z,2.30
2023-11-07T17:30:34.191Z,2.13
2023-11-07T17:33:02.386Z,1.80
2023-11-07T17:35:30.962Z,2.43
2023-11-07T17:37:59.888Z,1.80
2023-11-07T17:40:29.278Z,1.80
2023-11-07T17:42:57.706Z,2.07
2023-11-07T17:45:28.152Z,1.93
2023-11-07T17:47:56.772Z,2.33
2023-11-07T17:50:26.513Z,3.23
2023-11-07T17:52:54.681Z,1.83
2023-11-07T17:55:23.777Z,2.47
2023-11-07T17:57:52.365Z,2.30
2023-11-07T18:00:23.126Z,2.10
2023-11-07T18:02:54.125Z,2.50
2023-11-07T18:05:22.593Z,2.37
2023-11-07T18:07:51.137Z,2.70
2023-11-07T18:10:19.842Z,2.30
2023-11-07T18:12:48.169Z,2.93
2023-11-07T18:15:16.792Z,2.90
2023-11-07T18:17:45.020Z,2.73
2023-11-07T18:20:14.958Z,3.10
2023-11-07T18:22:43.690Z,3.30
2023-11-07T18:25:13.113Z,2.77
2023-11-07T18:27:43.756Z,2.00
2023-11-07T18:30:12.358Z,3.23
2023-11-07T18:32:40.828Z,1.57
2023-11-07T18:35:09.782Z,2.00
2023-11-07T18:37:39.267Z,2.33
2023-11-07T18:40:08.907Z,1.90
2023-11-07T18:42:37.056Z,1.40
2023-11-07T18:45:07.122Z,1.73
2023-11-07T18:47:35.705Z,2.10
2023-11-07T18:50:06.677Z,1.90
2023-11-07T18:52:35.621Z,2.03
2023-11-07T18:55:06.732Z,2.80
2023-11-07T18:57:35.004Z,2.17
2023-11-07T19:00:03.634Z,1.90
2023-11-07T19:02:31.931Z,1.77
2023-11-07T19:05:00.730Z,2.57
2023-11-07T19:07:29.228Z,2.33
2023-11-07T19:09:57.640Z,2.23
2023-11-07T19:12:29.716Z,2.33
2023-11-07T19:14:58.216Z,3.70
2023-11-07T19:17:26.275Z,2.60
2023-11-07T19:19:56.446Z,2.63
2023-11-07T19:22:24.926Z,3.40
2023-11-07T19:24:53.549Z,3.20
2023-11-07T19:27:23.109Z,3.30
2023-11-07T19:29:53.096Z,3.53
2023-11-07T19:32:21.311Z,3.27
2023-11-07T19:34:49.712Z,3.10
2023-11-07T19:37:18.026Z,2.30
2023-11-07T19:39:49.141Z,2.40
2023-11-07T19:42:17.638Z,2.33
2023-11-07T19:44:47.803Z,2.40
2023-11-07T19:47:17.624Z,2.37
2023-11-07T19:49:46.310Z,2.20
2023-11-07T19:52:14.892Z,2.80
2023-11-07T19:54:43.648Z,2.63
2023-11-07T19:57:12.093Z,2.30
2023-11-07T19:59:40.540Z,3.03
2023-11-07T20:02:09.876Z,3.33
2023-11-07T20:04:39.413Z,2.67
2023-11-07T20:07:07.711Z,2.63
2023-11-07T20:09:36.649Z,3.17
2023-11-07T20:12:05.383Z,2.70
2023-11-07T20:14:33.960Z,3.10
2023-11-07T20:17:02.764Z,2.80
2023-11-07T20:19:30.912Z,2.93
2023-11-07T20:22:00.404Z,2.77
2023-11-07T20:24:29.307Z,3.10
2023-11-07T20:26:57.523Z,3.00
2023-11-07T20:29:25.932Z,3.22
2023-11-07T20:31:54.565Z,3.03
2023-11-07T20:34:23.103Z,3.13
2023-11-07T20:36:51.875Z,2.83
2023-11-07T20:39:25.861Z,2.67
2023-11-07T20:41:53.951Z,2.80
2023-11-07T20:44:31.675Z,3.40
2023-11-07T20:47:04.297Z,4.80
2023-11-07T20:49:32.704Z,3.17
2023-11-07T20:52:03.995Z,3.13
2023-11-07T20:54:35.646Z,2.83
2023-11-07T20:57:04.060Z,2.90
2023-11-07T20:59:32.271Z,2.70
2023-11-07T21:02:01.056Z,2.63
2023-11-07T21:04:29.291Z,2.90
2023-11-07T21:06:57.472Z,2.40
2023-11-07T21:09:27.055Z,2.50
2023-11-07T21:11:57.438Z,2.50
2023-11-07T21:14:28.444Z,2.57
2023-11-07T21:16:56.828Z,4.10
2023-11-07T21:19:27.110Z,3.20
2023-11-07T21:22:01.602Z,3.23
2023-11-07T21:24:30.064Z,2.80
2023-11-07T21:26:59.609Z,3.27
2023-11-07T21:29:28.414Z,2.70
2023-11-07T21:31:56.511Z,2.53
2023-11-07T21:34:24.646Z,2.23
2023-11-07T21:36:53.365Z,2.93
2023-11-07T21:39:24.024Z,3.10
2023-11-07T21:41:54.257Z,3.70
2023-11-07T21:44:25.250Z,2.83
2023-11-07T21:46:55.084Z,2.57
2023-11-07T21:49:23.790Z,2.90
2023-11-07T21:51:51.951Z,2.50
2023-11-07T21:54:20.616Z,3.00
2023-11-07T21:56:49.023Z,2.57
2023-11-07T21:59:19.441Z,2.40
2023-11-07T22:01:50.419Z,2.30
2023-11-07T22:04:18.567Z,2.83
2023-11-07T22:06:46.648Z,2.47
2023-11-07T22:09:18.503Z,2.57
2023-11-07T22:11:46.880Z,2.97
2023-11-07T22:14:16.151Z,1.87
2023-11-07T22:16:45.240Z,2.93
2023-11-07T22:19:14.753Z,2.40
2023-11-07T22:21:43.541Z,3.43
2023-11-07T22:24:12.403Z,1.83
2023-11-07T22:26:41.074Z,2.37
2023-11-07T22:29:09.249Z,2.30
2023-11-07T22:31:37.958Z,3.00
2023-11-07T22:34:06.349Z,2.83
2023-11-07T22:36:35.871Z,2.10
2023-11-07T22:39:04.898Z,2.33
2023-11-07T22:41:33.336Z,3.07
2023-11-07T22:44:01.460Z,2.10
2023-11-07T22:46:32.020Z,2.10
2023-11-07T22:49:00.326Z,2.03
2023-11-07T22:51:28.471Z,2.50
2023-11-07T22:53:58.519Z,2.57
2023-11-07T22:56:27.229Z,2.00
2023-11-07T22:58:55.560Z,2.20
2023-11-07T23:01:26.414Z,2.33
2023-11-07T23:03:54.498Z,3.10
2023-11-07T23:06:24.095Z,1.67
2023-11-07T23:08:54.439Z,2.10
2023-11-07T23:11:23.887Z,1.77
2023-11-07T23:13:52.113Z,2.20
2023-11-07T23:16:21.872Z,2.77
2023-11-07T23:18:50.131Z,2.57
2023-11-07T23:21:18.275Z,2.10
2023-11-07T23:23:46.904Z,2.27
2023-11-07T23:26:14.901Z,2.57
2023-11-07T23:28:44.304Z,2.37
2023-11-07T23:31:12.380Z,2.00
2023-11-07T23:33:40.654Z,2.60
2023-11-07T23:36:10.410Z,3.37
2023-11-07T23:38:39.143Z,2.10
2023-11-07T23:41:07.111Z,2.50
2023-11-07T23:43:35.150Z,3.13
2023-11-07T23:46:05.355Z,2.97
2023-11-07T23:48:33.528Z,2.00
2023-11-07T23:51:05.262Z,1.90
2023-11-07T23:53:33.393Z,2.50
2023-11-07T23:56:01.999Z,2.00
2023-11-07T23:58:30.644Z,2.23
